Time;durP1;ratioP1;P1;durP2;ratioP2;P2;SDS_P1;SDS_P2;PMS_P1;PMS_P2;Temp;Humidity;BMP_temperature;BMP_pressure;BME280_temperature;BME280_humidity;BME280_pressure;Samples;Min_cycle;Max_cycle;Signal;HPM_P1;HPM_P2
2024/04/14 00:02:34;;;;;;;8.95;4.78;;;25.10;49.40;;;;;;6549288;26;79315;-64
2024/04/14 00:05:35;;;;;;;8.68;5.68;;;25.10;49.40;;;;;;6565513;26;80136;-64
2024/04/14 00:08:35;;;;;;;7.85;5.60;;;25.10;49.40;;;;;;6558226;26;79367;-64
2024/04/14 00:11:36;;;;;;;10.27;4.90;;;25.10;49.40;;;;;;6555575;26;79477;-64
2024/04/14 00:14:36;;;;;;;7.60;5.70;;;25.10;49.60;;;;;;6576353;26;79469;-60
2024/04/14 00:17:38;;;;;;;8.35;5.32;;;25.10;49.50;;;;;;6583089;26;79371;-59
2024/04/14 00:20:38;;;;;;;8.35;5.90;;;25.10;49.60;;;;;;6567112;26;80272;-59
2024/04/14 00:23:38;;;;;;;7.88;5.57;;;25.10;49.60;;;;;;6554487;26;79258;-59
2024/04/14 00:26:39;;;;;;;12.38;6.25;;;25.10;49.70;;;;;;6517567;26;80381;-59
2024/04/14 00:29:40;;;;;;;9.50;5.82;;;25.10;49.60;;;;;;6557885;26;79105;-58
2024/04/14 00:32:40;;;;;;;9.65;5.78;;;25.10;49.60;;;;;;6565524;26;80371;-69
2024/04/14 00:35:41;;;;;;;8.93;6.28;;;25.10;49.60;;;;;;6573288;26;80312;-68
2024/04/14 00:38:41;;;;;;;8.23;5.70;;;25.10;49.70;;;;;;6567664;26;78895;-66
2024/04/14 00:41:42;;;;;;;11.23;6.20;;;25.10;49.70;;;;;;6556425;26;79133;-67
2024/04/14 00:44:42;;;;;;;14.50;6.72;;;25.10;49.70;;;;;;6562899;26;79286;-67
2024/04/14 00:47:43;;;;;;;12.38;6.57;;;25.10;49.70;;;;;;6579803;26;79130;-66
2024/04/14 00:50:43;;;;;;;9.45;6.28;;;25.10;49.80;;;;;;6573735;26;78733;-66
2024/04/14 00:53:44;;;;;;;14.45;6.32;;;25.10;49.70;;;;;;6563963;26;78932;-65
2024/04/14 00:56:44;;;;;;;10.20;6.10;;;25.10;49.80;;;;;;6561570;26;79075;-65
2024/04/14 00:59:45;;;;;;;9.30;6.57;;;25.10;49.80;;;;;;6569546;26;79579;-67
2024/04/14 01:02:50;;;;;;;12.80;6.38;;;25.10;49.80;;;;;;6561496;26;80600;-65
2024/04/14 01:05:50;;;;;;;13.90;6.93;;;25.10;49.80;;;;;;6561652;26;80252;-66
2024/04/14 01:08:51;;;;;;;10.75;6.25;;;25.10;49.80;;;;;;6603436;26;79553;-57
2024/04/14 01:11:51;;;;;;;11.00;6.50;;;25.10;49.70;;;;;;6609022;26;81355;-58
2024/04/14 01:14:52;;;;;;;11.88;6.25;;;25.10;49.70;;;;;;6618758;26;81801;-56
2024/04/14 01:17:52;;;;;;;10.55;6.50;;;25.10;49.80;;;;;;6621656;26;80683;-57
2024/04/14 01:20:53;;;;;;;11.00;7.22;;;25.10;49.80;;;;;;6621971;26;80691;-58
2024/04/14 01:23:53;;;;;;;9.30;6.57;;;25.10;49.80;;;;;;6623961;26;80401;-57
2024/04/14 01:26:54;;;;;;;12.05;7.32;;;25.00;49.70;;;;;;6624448;26;78904;-62
2024/04/14 01:29:54;;;;;;;9.63;6.03;;;25.00;49.70;;;;;;6623550;26;79233;-61
2024/04/14 01:32:55;;;;;;;11.45;6.03;;;25.00;49.80;;;;;;6585390;26;80015;-61
2024/04/14 01:35:55;;;;;;;9.63;7.03;;;25.00;49.80;;;;;;6621732;26;80144;-62
2024/04/14 01:38:56;;;;;;;9.82;5.50;;;25.00;49.70;;;;;;6595232;26;79085;-61
2024/04/14 01:41:56;;;;;;;9.77;6.53;;;25.10;49.80;;;;;;6615297;26;80309;-62
2024/04/14 01:44:57;;;;;;;11.00;6.32;;;25.00;49.70;;;;;;6606925;26;81670;-63
2024/04/14 01:47:57;;;;;;;11.63;6.82;;;25.00;49.70;;;;;;6624148;26;79372;-64
2024/04/14 01:50:58;;;;;;;11.57;7.00;;;25.00;49.80;;;;;;6602973;26;83638;-64
2024/04/14 01:53:58;;;;;;;12.43;7.15;;;25.00;49.80;;;;;;6623137;26;79469;-62
2024/04/14 01:56:59;;;;;;;11.00;6.25;;;25.00;49.80;;;;;;6609163;26;79498;-63
2024/04/14 02:00:00;;;;;;;12.00;6.78;;;25.00;49.80;;;;;;6569064;26;79048;-63
2024/04/14 02:03:00;;;;;;;12.45;7.13;;;25.00;49.90;;;;;;6566130;26;80449;-63
2024/04/14 02:06:01;;;;;;;9.23;6.00;;;25.00;49.80;;;;;;6578383;26;79582;-62
2024/04/14 02:09:03;;;;;;;11.80;6.40;;;25.00;49.90;;;;;;6555899;26;83763;-63
2024/04/14 02:12:04;;;;;;;10.93;6.68;;;24.90;49.90;;;;;;6550970;26;78686;-62
2024/04/14 02:15:04;;;;;;;10.13;7.05;;;24.90;49.90;;;;;;6616136;26;79067;-62
2024/04/14 02:18:05;;;;;;;12.85;7.60;;;24.90;49.90;;;;;;6622689;26;79766;-63
2024/04/14 02:21:05;;;;;;;10.30;6.85;;;24.90;49.90;;;;;;6600503;26;82043;-64
2024/04/14 02:24:06;;;;;;;11.10;5.95;;;24.90;49.90;;;;;;6570904;26;78542;-62
2024/04/14 02:27:06;;;;;;;11.68;6.35;;;24.90;49.80;;;;;;6581140;26;78859;-62
2024/04/14 02:30:07;;;;;;;12.65;7.13;;;25.00;50.50;;;;;;6579793;26;79158;-62
2024/04/14 02:33:09;;;;;;;9.35;6.60;;;24.90;49.80;;;;;;6589374;26;80343;-62
2024/04/14 02:36:09;;;;;;;12.77;6.57;;;24.90;49.90;;;;;;6541252;26;78956;-62
2024/04/14 02:39:11;;;;;;;11.20;6.45;;;24.90;49.80;;;;;;6557723;26;79869;-62
2024/04/14 02:42:11;;;;;;;11.65;6.78;;;24.90;49.90;;;;;;6564241;26;78847;-62
2024/04/14 02:45:12;;;;;;;9.73;7.00;;;24.90;49.90;;;;;;6590021;26;79062;-64
2024/04/14 02:48:12;;;;;;;13.63;6.68;;;24.90;49.90;;;;;;6544525;26;80012;-64
2024/04/14 02:51:13;;;;;;;13.20;6.63;;;24.90;49.90;;;;;;6584613;26;78960;-63
2024/04/14 02:54:13;;;;;;;11.02;6.47;;;24.90;49.90;;;;;;6628357;26;80042;-63
2024/04/14 02:57:14;;;;;;;10.00;6.82;;;24.90;49.80;;;;;;6560192;26;80988;-64
2024/04/14 03:00:14;;;;;;;11.10;6.00;;;24.90;49.80;;;;;;6552584;26;79047;-64
2024/04/14 03:03:15;;;;;;;11.15;6.35;;;24.90;49.80;;;;;;6550907;26;79474;-65
2024/04/14 03:06:15;;;;;;;10.40;6.70;;;24.90;49.80;;;;;;6538544;26;80475;-64
2024/04/14 03:09:16;;;;;;;12.13;6.88;;;24.90;49.80;;;;;;6586757;26;79080;-62
2024/04/14 03:12:16;;;;;;;10.75;6.32;;;24.90;49.70;;;;;;6539969;26;79653;-62
2024/04/14 03:15:17;;;;;;;10.20;6.55;;;24.90;49.80;;;;;;6608227;26;79352;-62
2024/04/14 03:18:17;;;;;;;9.90;6.78;;;24.90;49.80;;;;;;6584846;26;79858;-62
2024/04/14 03:21:18;;;;;;;9.23;6.38;;;24.90;49.80;;;;;;6556670;26;79131;-66
2024/04/14 03:24:18;;;;;;;9.75;6.85;;;24.90;49.90;;;;;;6545384;26;78895;-63
2024/04/14 03:27:19;;;;;;;11.52;6.22;;;24.90;49.90;;;;;;6574031;26;78775;-67
2024/04/14 03:30:20;;;;;;;10.80;6.25;;;24.90;49.90;;;;;;6606155;26;81268;-65
2024/04/14 03:33:20;;;;;;;12.80;7.10;;;24.90;49.90;;;;;;6546456;26;79457;-66
2024/04/14 03:36:21;;;;;;;10.65;7.05;;;24.90;49.90;;;;;;6558685;26;79459;-69
2024/04/14 03:39:22;;;;;;;12.57;6.45;;;24.90;49.90;;;;;;6566243;26;78798;-67
2024/04/14 03:42:24;;;;;;;11.13;7.18;;;24.90;49.90;;;;;;6603980;26;79251;-67
2024/04/14 03:45:27;;;;;;;11.40;6.88;;;24.90;49.80;;;;;;6603646;26;80363;-66
2024/04/14 03:48:27;;;;;;;11.93;5.95;;;24.90;49.80;;;;;;6611189;26;79330;-67
2024/04/14 03:51:28;;;;;;;12.77;6.68;;;24.90;49.90;;;;;;6596660;26;78929;-66
2024/04/14 03:54:28;;;;;;;13.35;6.18;;;24.90;49.90;;;;;;6540726;26;79304;-66
2024/04/14 03:57:29;;;;;;;9.77;6.50;;;24.90;50.00;;;;;;6562223;26;81262;-67
2024/04/14 04:00:29;;;;;;;10.13;6.55;;;24.90;49.90;;;;;;6580795;26;81126;-67
2024/04/14 04:03:30;;;;;;;9.43;6.07;;;24.90;49.80;;;;;;6581866;26;78984;-66
2024/04/14 04:06:31;;;;;;;9.88;6.45;;;24.90;49.70;;;;;;6573701;26;79134;-66
2024/04/14 04:09:31;;;;;;;10.57;6.25;;;24.90;49.70;;;;;;6540919;26;83832;-67
2024/04/14 04:12:32;;;;;;;9.73;6.03;;;24.90;50.50;;;;;;6572655;26;79177;-58
2024/04/14 04:15:32;;;;;;;11.00;5.65;;;24.90;49.70;;;;;;6581164;26;79522;-62
2024/04/14 04:18:33;;;;;;;9.35;5.97;;;24.90;49.70;;;;;;6541241;26;79148;-59
2024/04/14 04:21:33;;;;;;;8.25;5.50;;;24.90;49.70;;;;;;6541123;26;82754;-59
2024/04/14 04:24:34;;;;;;;10.52;6.13;;;24.90;49.80;;;;;;6540871;26;81980;-59
2024/04/14 04:27:34;;;;;;;10.38;5.32;;;24.90;49.90;;;;;;6539805;26;79085;-58
2024/04/14 04:30:35;;;;;;;8.75;5.80;;;24.90;49.90;;;;;;6513063;26;82042;-60
2024/04/14 04:33:35;;;;;;;8.25;5.53;;;24.90;50.00;;;;;;6542959;26;80009;-59
2024/04/14 04:36:36;;;;;;;11.00;5.45;;;24.90;50.00;;;;;;6580005;26;87799;-59
2024/04/14 04:39:36;;;;;;;8.68;4.78;;;24.90;50.00;;;;;;6607762;26;80703;-62
2024/04/14 04:42:37;;;;;;;8.07;5.00;;;24.90;49.90;;;;;;6609879;26;79314;-60
2024/04/14 04:45:37;;;;;;;7.50;4.93;;;24.90;49.90;;;;;;6586700;26;78720;-60
2024/04/14 04:48:38;;;;;;;12.32;6.00;;;24.90;50.00;;;;;;6592795;26;79220;-60
2024/04/14 04:51:39;;;;;;;8.93;5.63;;;24.90;50.00;;;;;;6548238;26;79526;-59
2024/04/14 04:54:39;;;;;;;8.18;5.97;;;24.90;50.00;;;;;;6541024;26;78829;-60
2024/04/14 04:57:40;;;;;;;11.10;5.28;;;24.90;50.00;;;;;;6546333;26;79611;-58
2024/04/14 05:00:40;;;;;;;11.23;5.15;;;24.90;50.00;;;;;;6540903;26;78792;-59
2024/04/14 05:03:41;;;;;;;8.82;4.93;;;24.90;50.10;;;;;;6560674;26;79335;-57
2024/04/14 05:06:41;;;;;;;11.57;5.32;;;24.90;50.10;;;;;;6614254;26;79426;-59
2024/04/14 05:09:42;;;;;;;8.90;5.22;;;24.90;50.30;;;;;;6624114;26;80378;-63
2024/04/14 05:12:42;;;;;;;11.75;5.43;;;25.00;50.30;;;;;;6592108;26;79335;-60
2024/04/14 05:15:43;;;;;;;16.85;5.70;;;25.00;50.40;;;;;;6604146;26;82864;-61
2024/04/14 05:18:43;;;;;;;11.35;5.15;;;25.00;50.70;;;;;;6623329;26;78958;-62
2024/04/14 05:21:44;;;;;;;10.40;5.00;;;25.10;50.50;;;;;;6598681;26;79353;-62
2024/04/14 05:24:44;;;;;;;9.60;4.80;;;25.10;50.40;;;;;;6600650;26;78741;-61
2024/04/14 05:27:45;;;;;;;11.68;5.78;;;25.10;50.90;;;;;;6596887;26;79035;-60
2024/04/14 05:30:45;;;;;;;8.32;5.35;;;25.10;50.90;;;;;;6618245;26;80577;-62
2024/04/14 05:33:46;;;;;;;11.15;5.50;;;25.10;50.70;;;;;;6595239;26;78956;-59
2024/04/14 05:36:46;;;;;;;8.05;5.60;;;25.10;50.80;;;;;;6619522;26;84853;-61
2024/04/14 05:39:47;;;;;;;8.90;5.00;;;25.10;51.00;;;;;;6623410;26;78861;-56
2024/04/14 05:42:47;;;;;;;13.25;5.45;;;25.10;51.70;;;;;;6568228;26;80967;-59
2024/04/14 05:45:48;;;;;;;13.20;5.00;;;25.20;51.70;;;;;;6554947;26;79767;-59
2024/04/14 05:48:49;;;;;;;8.45;5.38;;;25.20;52.10;;;;;;6561816;26;78989;-60
2024/04/14 05:51:49;;;;;;;7.22;4.60;;;25.30;52.30;;;;;;6573111;26;82099;-67
2024/04/14 05:54:50;;;;;;;10.05;5.38;;;25.30;52.70;;;;;;6591994;26;78939;-64
2024/04/14 05:57:50;;;;;;;9.75;5.22;;;25.30;53.20;;;;;;6567647;26;80055;-66
2024/04/14 06:00:51;;;;;;;9.95;5.60;;;25.30;53.40;;;;;;6607949;26;78970;-63
2024/04/14 06:03:52;;;;;;;13.15;7.05;;;25.40;54.20;;;;;;6616731;26;79846;-69
2024/04/14 06:06:52;;;;;;;13.30;6.53;;;25.40;54.20;;;;;;6570174;26;79288;-67
2024/04/14 06:09:53;;;;;;;11.65;6.20;;;25.40;54.30;;;;;;6576000;26;79100;-64
2024/04/14 06:12:53;;;;;;;11.25;5.63;;;25.50;54.90;;;;;;6584920;26;78866;-64
2024/04/14 06:15:54;;;;;;;12.98;5.75;;;25.50;55.50;;;;;;6570030;26;79431;-65
2024/04/14 06:18:54;;;;;;;11.07;6.30;;;25.50;54.80;;;;;;6596404;26;79680;-64
2024/04/14 06:21:55;;;;;;;11.15;5.75;;;25.60;54.60;;;;;;6569298;26;80121;-66
2024/04/14 06:24:55;;;;;;;10.82;6.25;;;25.60;54.60;;;;;;6577562;26;79986;-69
2024/04/14 06:27:56;;;;;;;16.08;7.80;;;25.50;54.30;;;;;;6520723;26;80009;-75
2024/04/14 06:30:57;;;;;;;22.88;10.30;;;25.50;53.00;;;;;;6587996;26;82933;-63
2024/04/14 06:33:57;;;;;;;20.25;8.80;;;25.50;52.10;;;;;;6596496;26;81680;-71
2024/04/14 06:36:58;;;;;;;22.50;7.38;;;25.30;52.90;;;;;;6561980;26;81913;-72
2024/04/14 06:39:58;;;;;;;16.25;7.57;;;25.40;53.80;;;;;;6548966;26;83162;-62
2024/04/14 06:42:59;;;;;;;18.08;7.13;;;25.50;53.60;;;;;;6584259;26;79013;-60
2024/04/14 06:45:59;;;;;;;19.38;7.47;;;25.50;54.20;;;;;;6580118;26;79402;-60
2024/04/14 06:49:00;;;;;;;18.90;6.78;;;25.50;54.50;;;;;;6543571;26;84023;-55
2024/04/14 06:52:00;;;;;;;13.27;6.57;;;25.50;55.30;;;;;;6566289;26;79171;-61
2024/04/14 06:55:01;;;;;;;16.80;6.40;;;25.50;55.70;;;;;;6587285;26;83095;-59
2024/04/14 06:58:01;;;;;;;15.13;6.90;;;25.60;56.10;;;;;;6593321;26;79050;-63
2024/04/14 07:01:02;;;;;;;16.50;6.53;;;25.60;56.80;;;;;;6574676;26;79019;-66
2024/04/14 07:04:02;;;;;;;12.88;7.15;;;25.60;58.20;;;;;;6602454;26;82829;-68
2024/04/14 07:07:03;;;;;;;10.48;5.70;;;25.60;57.30;;;;;;6581480;26;78762;-68
2024/04/14 07:10:03;;;;;;;18.17;6.97;;;25.60;58.00;;;;;;6558940;26;81326;-60
2024/04/14 07:13:04;;;;;;;14.77;6.30;;;25.60;58.60;;;;;;6581875;26;80535;-63
2024/04/14 07:16:04;;;;;;;12.90;5.55;;;25.60;57.80;;;;;;6597863;26;79064;-66
2024/04/14 07:19:05;;;;;;;8.85;5.95;;;25.60;58.10;;;;;;6578851;26;79193;-62
2024/04/14 07:22:05;;;;;;;11.95;6.43;;;25.60;58.30;;;;;;6588328;26;80322;-63
2024/04/14 07:25:06;;;;;;;11.23;5.32;;;25.60;59.10;;;;;;6588732;26;79255;-66
2024/04/14 07:28:06;;;;;;;9.18;5.38;;;25.60;58.20;;;;;;6580914;26;79001;-64
2024/04/14 07:31:07;;;;;;;10.98;4.47;;;25.60;58.70;;;;;;6585574;26;78992;-64
2024/04/14 07:34:08;;;;;;;10.18;4.50;;;25.60;57.60;;;;;;6592394;26;84786;-64
2024/04/14 07:37:08;;;;;;;9.60;4.68;;;25.60;57.00;;;;;;6592572;26;79412;-64
2024/04/14 07:40:09;;;;;;;7.43;3.90;;;25.60;57.90;;;;;;6583921;26;79331;-63
2024/04/14 07:43:09;;;;;;;9.25;4.65;;;25.60;58.80;;;;;;6589870;26;80331;-64
2024/04/14 07:46:10;;;;;;;8.63;4.38;;;25.60;57.70;;;;;;6584924;26;79263;-63
2024/04/14 07:49:10;;;;;;;9.73;4.50;;;25.70;56.30;;;;;;6580945;26;80727;-64
2024/04/14 07:52:11;;;;;;;7.35;4.15;;;25.60;57.30;;;;;;6542402;26;79872;-67
2024/04/14 07:55:11;;;;;;;10.48;4.07;;;25.50;56.00;;;;;;6577881;26;79489;-67
2024/04/14 07:58:12;;;;;;;12.75;4.25;;;25.60;58.70;;;;;;6560851;26;80089;-69
2024/04/14 08:01:12;;;;;;;12.93;4.60;;;25.60;58.50;;;;;;6582171;26;78919;-72
2024/04/14 08:04:13;;;;;;;7.15;3.75;;;25.60;57.90;;;;;;6592410;26;79978;-69
2024/04/14 08:07:13;;;;;;;15.85;4.60;;;25.60;58.20;;;;;;6590887;26;78725;-70
2024/04/14 08:10:14;;;;;;;9.35;3.70;;;25.60;57.70;;;;;;6598097;26;79393;-66
2024/04/14 08:13:14;;;;;;;8.27;4.50;;;25.60;57.20;;;;;;6602439;26;79028;-66
2024/04/14 08:16:15;;;;;;;14.00;4.25;;;25.70;58.40;;;;;;6619321;26;79124;-66
2024/04/14 08:19:15;;;;;;;4.65;3.40;;;25.60;56.80;;;;;;6615312;26;80091;-64
2024/04/14 08:22:16;;;;;;;9.27;4.47;;;25.60;56.20;;;;;;6580599;26;79193;-62
2024/04/14 08:25:16;;;;;;;6.38;3.78;;;25.60;56.60;;;;;;6603698;26;81034;-63
2024/04/14 08:28:18;;;;;;;23.38;4.28;;;25.70;56.50;;;;;;6621592;26;78953;-67
2024/04/14 08:31:19;;;;;;;9.43;4.07;;;25.70;56.60;;;;;;6598374;26;79728;-62
2024/04/14 08:34:19;;;;;;;6.75;4.10;;;25.70;57.00;;;;;;6590990;26;78806;-63
2024/04/14 08:37:20;;;;;;;12.52;5.40;;;25.70;56.90;;;;;;6619953;26;79244;-66
2024/04/14 08:40:20;;;;;;;17.77;5.78;;;25.70;56.80;;;;;;6613329;26;80046;-63
2024/04/14 08:43:21;;;;;;;12.18;5.35;;;25.70;57.60;;;;;;6574689;26;79405;-62
2024/04/14 08:46:21;;;;;;;12.55;4.47;;;25.70;55.50;;;;;;6594441;26;86069;-61
2024/04/14 08:49:22;;;;;;;8.98;4.57;;;25.70;56.30;;;;;;6588653;26;78968;-64
2024/04/14 08:52:23;;;;;;;11.48;4.60;;;25.70;57.10;;;;;;6582797;26;81334;-61
2024/04/14 08:55:23;;;;;;;8.68;4.15;;;25.70;57.20;;;;;;6598915;26;79899;-63
2024/04/14 08:58:26;;;;;;;11.30;3.78;;;25.80;56.40;;;;;;6608729;26;80116;-61
2024/04/14 09:01:27;;;;;;;7.35;3.83;;;25.70;55.60;;;;;;6543894;26;80977;-61
2024/04/14 09:04:27;;;;;;;9.05;3.88;;;25.70;54.90;;;;;;6546254;26;83691;-61
2024/04/14 09:07:28;;;;;;;12.57;4.07;;;25.70;55.70;;;;;;6568213;26;79063;-67
2024/04/14 09:10:28;;;;;;;7.00;3.38;;;25.80;55.10;;;;;;6569329;26;79242;-68
2024/04/14 09:13:29;;;;;;;16.80;3.42;;;25.70;53.40;;;;;;6623979;26;78929;-70
2024/04/14 09:16:29;;;;;;;10.88;2.75;;;25.60;51.70;;;;;;6590393;26;81235;-62
2024/04/14 09:19:30;;;;;;;18.30;3.22;;;25.60;50.30;;;;;;6572607;26;78643;-67
2024/04/14 09:22:32;;;;;;;9.18;3.08;;;25.60;52.20;;;;;;6573107;26;85090;-69
2024/04/14 09:25:32;;;;;;;11.10;2.80;;;25.70;51.70;;;;;;6585273;26;79452;-59
2024/04/14 09:28:33;;;;;;;22.15;3.67;;;25.80;52.90;;;;;;6579375;26;83721;-58
2024/04/14 09:31:33;;;;;;;11.88;2.92;;;25.80;50.90;;;;;;6577533;26;79210;-61
2024/04/14 09:34:34;;;;;;;14.77;2.90;;;25.90;50.20;;;;;;6546039;26;79183;-67
2024/04/14 09:37:34;;;;;;;15.18;2.97;;;25.90;49.40;;;;;;6593406;26;81237;-56
2024/04/14 09:40:35;;;;;;;9.10;2.60;;;25.90;50.40;;;;;;6576559;26;79404;-61
2024/04/14 09:43:35;;;;;;;7.95;2.55;;;25.90;50.60;;;;;;6583122;26;79378;-62
2024/04/14 09:46:36;;;;;;;13.18;2.38;;;26.00;50.20;;;;;;6585106;26;81533;-54
2024/04/14 09:49:37;;;;;;;13.38;2.92;;;26.00;49.90;;;;;;6583853;26;79041;-64
2024/04/14 09:52:37;;;;;;;13.32;3.05;;;26.00;50.10;;;;;;6601073;26;79397;-58
2024/04/14 09:55:38;;;;;;;10.00;2.60;;;26.00;50.80;;;;;;6612164;26;78955;-58
2024/04/14 09:58:39;;;;;;;17.63;3.17;;;26.00;50.70;;;;;;6575682;26;79720;-60
2024/04/14 10:01:39;;;;;;;9.38;2.42;;;26.10;50.80;;;;;;6581805;26;78812;-70
2024/04/14 10:04:40;;;;;;;19.48;3.45;;;26.20;51.00;;;;;;6563411;26;78907;-66
2024/04/14 10:07:40;;;;;;;11.23;2.92;;;26.20;51.20;;;;;;6565265;26;80599;-66
2024/04/14 10:10:41;;;;;;;14.15;2.40;;;26.20;50.70;;;;;;6604953;26;80996;-67
2024/04/14 10:13:41;;;;;;;9.18;2.67;;;26.30;51.30;;;;;;6591410;26;83632;-65
2024/04/14 10:16:42;;;;;;;16.95;3.17;;;26.30;50.80;;;;;;6597439;26;79247;-72
2024/04/14 10:19:42;;;;;;;22.67;4.03;;;26.30;51.40;;;;;;6584643;26;78957;-68
2024/04/14 10:22:43;;;;;;;19.27;4.80;;;26.40;51.50;;;;;;6600138;26;79011;-68
2024/04/14 10:25:43;;;;;;;32.67;7.57;;;26.40;51.50;;;;;;6543155;26;86672;-68
2024/04/14 10:28:44;;;;;;;22.90;6.95;;;26.40;51.40;;;;;;6570622;26;83592;-70
2024/04/14 10:31:44;;;;;;;22.30;7.40;;;26.40;51.80;;;;;;6548400;26;83579;-67
2024/04/14 10:34:45;;;;;;;27.15;8.70;;;26.40;52.00;;;;;;6581916;26;79467;-63
2024/04/14 10:37:46;;;;;;;36.72;9.80;;;26.40;51.50;;;;;;6557991;26;83704;-66
2024/04/14 10:40:46;;;;;;;47.53;12.02;;;26.40;52.20;;;;;;6594472;26;80272;-64
2024/04/14 10:43:47;;;;;;;27.27;10.88;;;26.40;52.40;;;;;;6561067;26;82127;-62
2024/04/14 10:46:48;;;;;;;36.28;9.73;;;26.40;52.40;;;;;;6518045;26;89714;-70
2024/04/14 10:49:49;;;;;;;28.75;8.93;;;26.40;52.80;;;;;;6544420;26;83422;-68
2024/04/14 10:52:49;;;;;;;27.95;7.18;;;26.40;52.90;;;;;;6579293;26;86207;-63
2024/04/14 10:55:50;;;;;;;19.20;6.50;;;26.40;52.30;;;;;;6595758;26;80255;-62
2024/04/14 10:58:51;;;;;;;28.00;7.15;;;26.40;52.90;;;;;;6588801;26;80137;-67
2024/04/14 11:01:51;;;;;;;18.25;5.68;;;26.40;53.30;;;;;;6572451;26;79675;-70
2024/04/14 11:04:52;;;;;;;15.88;5.03;;;26.40;53.50;;;;;;6583166;26;79138;-69
2024/04/14 11:07:53;;;;;;;20.95;5.47;;;26.40;53.90;;;;;;6602760;26;78956;-69
2024/04/14 11:10:53;;;;;;;16.25;4.93;;;26.40;54.00;;;;;;6551187;26;80044;-70
2024/04/14 11:13:54;;;;;;;12.93;3.83;;;26.40;53.90;;;;;;6583843;26;78939;-70
2024/04/14 11:16:54;;;;;;;20.70;3.80;;;26.50;53.80;;;;;;6563655;26;79573;-62
2024/04/14 11:19:55;;;;;;;13.07;3.63;;;26.50;53.30;;;;;;6553548;26;78995;-62
2024/04/14 11:22:55;;;;;;;20.90;3.85;;;26.40;54.20;;;;;;6589995;26;80270;-62
2024/04/14 11:25:56;;;;;;;12.52;3.30;;;26.50;53.80;;;;;;6607202;26;79086;-62
2024/04/14 11:28:56;;;;;;;21.85;3.78;;;26.40;53.60;;;;;;6566310;26;80165;-62
2024/04/14 11:31:57;;;;;;;17.95;2.97;;;26.40;53.30;;;;;;6560569;26;79300;-62
2024/04/14 11:34:59;;;;;;;11.35;2.67;;;26.40;54.30;;;;;;6581914;26;80504;-61
2024/04/14 11:37:59;;;;;;;13.35;3.53;;;26.40;54.00;;;;;;6581398;26;79021;-62
2024/04/14 11:41:00;;;;;;;12.55;3.40;;;26.40;54.30;;;;;;6587626;26;79223;-62
2024/04/14 11:44:01;;;;;;;14.13;3.00;;;26.40;54.50;;;;;;6585916;26;80506;-63
2024/04/14 11:47:01;;;;;;;13.23;2.90;;;26.40;54.60;;;;;;6579899;26;78498;-62
2024/04/14 11:50:02;;;;;;;11.18;2.67;;;26.40;54.80;;;;;;6582532;26;80865;-61
2024/04/14 11:53:02;;;;;;;13.80;2.80;;;26.40;54.40;;;;;;6613161;26;79062;-62
2024/04/14 11:56:03;;;;;;;12.27;3.22;;;26.50;54.60;;;;;;6624856;26;79141;-62
2024/04/14 11:59:03;;;;;;;12.93;2.92;;;26.40;54.70;;;;;;6605932;26;82490;-63
2024/04/14 12:02:04;;;;;;;8.10;2.70;;;26.40;54.60;;;;;;6623337;26;79052;-61
2024/04/14 12:05:05;;;;;;;10.32;2.55;;;26.40;54.90;;;;;;6601046;26;79515;-62
2024/04/14 12:08:05;;;;;;;3.80;2.30;;;26.40;54.30;;;;;;6571854;26;79086;-62
2024/04/14 12:11:06;;;;;;;4.38;2.35;;;26.40;54.60;;;;;;6582265;26;79957;-62
2024/04/14 12:14:06;;;;;;;9.18;2.58;;;26.40;54.90;;;;;;6583201;26;78730;-62
2024/04/14 12:17:07;;;;;;;4.35;2.55;;;26.40;55.00;;;;;;6582165;26;79511;-62
2024/04/14 12:20:08;;;;;;;7.57;2.35;;;26.40;55.20;;;;;;6604891;26;80523;-62
2024/04/14 12:23:08;;;;;;;8.48;2.65;;;26.40;55.30;;;;;;6583669;26;78808;-62
2024/04/14 12:26:09;;;;;;;7.53;2.28;;;26.40;55.30;;;;;;6574935;26;79439;-62
2024/04/14 12:29:09;;;;;;;8.00;3.08;;;26.40;55.30;;;;;;6572601;26;79275;-62
2024/04/14 12:32:10;;;;;;;6.50;2.78;;;26.40;54.90;;;;;;6577493;26;80128;-63
2024/04/14 12:35:10;;;;;;;4.22;2.50;;;26.40;55.40;;;;;;6584719;26;79764;-63
2024/04/14 12:38:11;;;;;;;8.18;2.40;;;26.40;55.30;;;;;;6564903;26;82597;-61
2024/04/14 12:41:12;;;;;;;6.13;2.17;;;26.40;55.20;;;;;;6584836;26;78789;-61
2024/04/14 12:44:12;;;;;;;6.28;2.10;;;26.40;55.60;;;;;;6586881;26;79420;-61
2024/04/14 12:47:13;;;;;;;6.68;2.92;;;26.40;55.50;;;;;;6584296;26;79236;-71
2024/04/14 12:50:14;;;;;;;7.05;2.75;;;26.40;55.60;;;;;;6569394;26;79840;-71
2024/04/14 12:53:15;;;;;;;6.20;2.47;;;26.40;55.30;;;;;;6569298;26;79118;-70
2024/04/14 12:56:16;;;;;;;6.70;2.17;;;26.30;55.40;;;;;;6569863;26;80316;-71
2024/04/14 12:59:16;;;;;;;7.88;2.42;;;26.30;55.40;;;;;;6607501;26;80342;-70
2024/04/14 13:02:17;;;;;;;6.60;2.53;;;26.30;55.60;;;;;;6604668;26;79262;-71
2024/04/14 13:05:18;;;;;;;6.07;2.13;;;26.30;55.20;;;;;;6582957;26;80098;-62
2024/04/14 13:08:19;;;;;;;5.07;1.92;;;26.30;55.60;;;;;;6554380;26;81369;-63
2024/04/14 13:11:19;;;;;;;4.72;2.60;;;26.20;56.00;;;;;;6575343;26;79233;-61
2024/04/14 13:14:20;;;;;;;13.63;2.50;;;26.20;55.70;;;;;;6581604;26;79067;-61
2024/04/14 13:17:20;;;;;;;11.52;2.33;;;26.20;55.50;;;;;;6566338;26;80293;-60
2024/04/14 13:20:21;;;;;;;14.18;3.10;;;26.20;56.60;;;;;;6582470;26;79959;-61
2024/04/14 13:23:21;;;;;;;16.45;3.10;;;26.20;55.90;;;;;;6586929;26;78896;-59
2024/04/14 13:26:22;;;;;;;19.17;3.08;;;26.20;55.90;;;;;;6585966;26;79578;-62
2024/04/14 13:29:22;;;;;;;11.75;3.03;;;26.20;54.90;;;;;;6574017;26;82191;-61
2024/04/14 13:32:23;;;;;;;16.98;2.88;;;26.20;54.90;;;;;;6563997;26;78710;-61
2024/04/14 13:35:23;;;;;;;9.32;2.80;;;26.20;55.00;;;;;;6567227;26;79118;-57
2024/04/14 13:38:24;;;;;;;7.30;2.42;;;26.20;54.90;;;;;;6578531;26;83797;-62
2024/04/14 13:41:26;;;;;;;7.25;2.75;;;26.20;54.70;;;;;;6595565;26;79968;-60
2024/04/14 13:44:26;;;;;;;10.18;2.53;;;26.20;54.40;;;;;;6530064;26;81149;-62
2024/04/14 13:47:27;;;;;;;9.65;2.58;;;26.20;55.10;;;;;;6600321;26;79137;-61
2024/04/14 13:50:28;;;;;;;5.68;2.63;;;26.20;54.60;;;;;;6556527;26;85662;-59
2024/04/14 13:53:29;;;;;;;9.85;2.88;;;26.20;54.10;;;;;;6562507;26;87007;-61
2024/04/14 13:56:29;;;;;;;11.20;3.70;;;26.20;53.80;;;;;;6590271;26;79994;-60
2024/04/14 13:59:30;;;;;;;15.63;4.22;;;26.20;54.00;;;;;;6589003;26;79536;-61
2024/04/14 14:02:30;;;;;;;11.80;5.30;;;26.10;55.10;;;;;;6595923;26;81257;-59
2024/04/14 14:05:31;;;;;;;16.20;5.32;;;26.20;56.30;;;;;;6586414;26;79161;-60
2024/04/14 14:08:32;;;;;;;15.35;5.32;;;26.20;56.30;;;;;;6568986;26;78771;-60
2024/04/14 14:11:32;;;;;;;13.80;5.13;;;26.20;56.50;;;;;;6572455;26;80296;-60
2024/04/14 14:14:33;;;;;;;11.93;5.03;;;26.20;56.00;;;;;;6563521;26;81038;-63
2024/04/14 14:17:33;;;;;;;11.25;4.50;;;26.20;55.90;;;;;;6570390;26;79523;-62
2024/04/14 14:20:34;;;;;;;17.60;4.80;;;26.20;55.80;;;;;;6549092;26;80530;-62
2024/04/14 14:23:34;;;;;;;6.90;4.03;;;26.20;55.20;;;;;;6556934;26;80163;-60
2024/04/14 14:26:35;;;;;;;13.18;4.18;;;26.20;54.80;;;;;;6554548;26;80623;-62
2024/04/14 14:29:35;;;;;;;8.27;3.72;;;26.20;54.90;;;;;;6548762;26;83279;-60
2024/04/14 14:32:37;;;;;;;9.65;4.05;;;26.20;54.70;;;;;;6557470;26;80323;-60
2024/04/14 14:38:56;;;;;;;6.78;3.20;;;26.20;53.80;;;;;;6557871;26;80583;-75
2024/04/14 14:41:57;;;;;;;5.32;2.70;;;26.10;53.50;;;;;;6553771;26;79893;-75
2024/04/14 14:44:57;;;;;;;12.85;4.00;;;26.10;53.30;;;;;;6559710;26;79314;-74
2024/04/14 14:47:58;;;;;;;6.22;3.08;;;26.10;53.40;;;;;;6558303;26;80391;-73
2024/04/14 14:50:58;;;;;;;7.38;2.90;;;26.10;53.60;;;;;;6560463;26;79761;-71
2024/04/14 14:53:59;;;;;;;6.72;2.78;;;26.10;53.50;;;;;;6560903;26;79464;-74
2024/04/14 14:57:00;;;;;;;8.27;2.90;;;26.10;53.00;;;;;;6553792;26;84997;-73
2024/04/14 15:00:01;;;;;;;17.13;3.60;;;26.10;53.40;;;;;;6551666;26;80667;-72
2024/04/14 15:03:02;;;;;;;6.25;2.83;;;26.10;52.80;;;;;;6557300;26;81843;-67
2024/04/14 15:06:02;;;;;;;4.82;2.47;;;26.00;52.70;;;;;;6555478;26;81313;-71
2024/04/14 15:09:03;;;;;;;4.07;2.60;;;26.10;52.70;;;;;;6586252;26;79468;-77
2024/04/14 15:12:03;;;;;;;11.20;2.80;;;26.10;52.60;;;;;;6584149;26;79011;-72
2024/04/14 15:15:05;;;;;;;8.35;2.92;;;26.10;52.90;;;;;;6613644;26;79185;-70
2024/04/14 15:18:06;;;;;;;5.55;2.60;;;26.10;52.70;;;;;;6586881;26;79029;-72
2024/04/14 15:21:06;;;;;;;6.70;2.60;;;26.10;52.40;;;;;;6597628;26;82390;-74
2024/04/14 15:24:07;;;;;;;7.32;2.30;;;26.20;52.60;;;;;;6564872;26;80391;-75
2024/04/14 15:27:07;;;;;;;6.18;2.42;;;26.20;52.40;;;;;;6580880;26;81249;-70
2024/04/14 15:30:08;;;;;;;8.10;2.92;;;26.20;52.10;;;;;;6590963;26;79183;-74
2024/04/14 15:33:08;;;;;;;7.32;2.42;;;26.10;51.40;;;;;;6581893;26;84640;-74
2024/04/14 15:36:09;;;;;;;5.60;2.28;;;26.10;51.40;;;;;;6587644;26;79598;-66